Aviation Digital Data Service (ADDS)

Output produced by TAFs form (1302 UTC 17 January 2017)
found at http://aviationweather.gov/adds/tafs/
 
KROW 171136Z 1712/1812 02006KT P6SM OVC025 
     FM171700 VRB05KT P6SM BKN040 
     FM172200 VRB04KT P6SM VCSH OVC040 
     FM180000 VRB05KT 4SM -RA OVC030 
     FM180900 VRB05KT 1SM BR OVC012